Time;durP1;ratioP1;P1;durP2;ratioP2;P2;SDS_P1;SDS_P2;PMS_P1;PMS_P2;Temp;Humidity;BMP_temperature;BMP_pressure;BME280_temperature;BME280_humidity;BME280_pressure;Samples;Min_cycle;Max_cycle;Signal;HPM_P1;HPM_P2
2021/01/03 00:00:49;;;;;;;36.90;22.13;;;3.30;80.80;;;;;;5095269;28;20024;-42
2021/01/03 00:03:15;;;;;;;36.85;21.90;;;3.30;80.70;;;;;;5094674;28;20043;-42
2021/01/03 00:05:40;;;;;;;37.90;23.27;;;3.30;80.80;;;;;;5095598;28;20063;-43
2021/01/03 00:08:06;;;;;;;32.42;20.88;;;3.30;80.80;;;;;;5095454;28;20123;-41
2021/01/03 00:10:32;;;;;;;34.20;20.67;;;3.30;80.70;;;;;;5095789;28;20056;-42
2021/01/03 00:12:57;;;;;;;31.85;20.20;;;3.30;80.70;;;;;;5095951;28;20482;-42
2021/01/03 00:15:24;;;;;;;31.42;20.77;;;3.30;80.70;;;;;;5095226;28;20051;-42
2021/01/03 00:17:50;;;;;;;32.72;20.90;;;3.30;80.70;;;;;;5096288;28;20016;-41
2021/01/03 00:20:20;;;;;;;30.70;18.42;;;3.30;80.70;;;;;;5094983;28;20067;-41
2021/01/03 00:22:48;;;;;;;34.00;20.30;;;3.30;80.70;;;;;;5095680;28;20024;-41
2021/01/03 00:25:15;;;;;;;35.35;20.70;;;3.30;81.30;;;;;;5095129;28;20039;-42
2021/01/03 00:27:40;;;;;;;34.88;22.35;;;3.30;80.60;;;;;;5096003;28;20026;-41
2021/01/03 00:30:13;;;;;;;34.33;19.30;;;3.30;80.50;;;;;;5095567;28;20106;-42
2021/01/03 00:32:39;;;;;;;32.45;20.92;;;3.30;80.40;;;;;;5095938;28;20051;-41
2021/01/03 00:35:08;;;;;;;38.63;22.63;;;3.30;80.30;;;;;;5095083;28;20046;-42
2021/01/03 00:37:33;;;;;;;33.83;21.00;;;3.30;80.20;;;;;;5095389;28;20028;-42
2021/01/03 00:39:59;;;;;;;34.28;19.15;;;3.30;79.90;;;;;;5094790;28;20031;-42
2021/01/03 00:42:26;;;;;;;30.73;18.40;;;3.20;79.50;;;;;;5095552;28;20023;-41
2021/01/03 00:44:51;;;;;;;34.58;20.77;;;3.20;79.40;;;;;;5095568;28;20079;-42
2021/01/03 00:47:17;;;;;;;42.70;25.40;;;3.20;79.30;;;;;;5095812;28;20051;-43
2021/01/03 00:49:43;;;;;;;35.50;20.92;;;3.20;79.40;;;;;;5095790;28;20525;-41
2021/01/03 00:52:08;;;;;;;34.88;20.63;;;3.10;79.30;;;;;;5095176;28;20016;-43
2021/01/03 00:54:34;;;;;;;36.75;20.73;;;3.10;79.40;;;;;;5094847;28;20028;-43
2021/01/03 00:57:00;;;;;;;35.35;21.60;;;3.10;79.40;;;;;;5098048;28;20031;-45
2021/01/03 00:59:26;;;;;;;32.47;19.15;;;3.10;79.40;;;;;;5099030;28;20403;-41
2021/01/03 01:01:51;;;;;;;30.75;19.10;;;3.00;79.30;;;;;;5099473;28;20040;-43
2021/01/03 01:04:18;;;;;;;41.92;24.17;;;3.00;79.30;;;;;;5099067;28;20105;-41
2021/01/03 01:06:44;;;;;;;38.25;22.77;;;3.00;79.30;;;;;;5097865;28;20027;-43
2021/01/03 01:09:10;;;;;;;34.42;20.33;;;2.90;79.20;;;;;;5097743;28;20031;-42
2021/01/03 01:11:42;;;;;;;38.47;21.05;;;2.90;79.30;;;;;;5097971;28;20023;-43
2021/01/03 01:14:09;;;;;;;40.58;22.80;;;2.90;79.30;;;;;;5097825;28;20040;-41
2021/01/03 01:16:36;;;;;;;40.50;21.52;;;2.90;79.30;;;;;;5098965;28;20426;-41
2021/01/03 01:19:03;;;;;;;40.83;21.92;;;2.80;79.20;;;;;;5097846;28;20060;-42
2021/01/03 01:21:28;;;;;;;43.92;23.55;;;2.80;79.30;;;;;;5099074;28;20329;-42
2021/01/03 01:23:54;;;;;;;36.40;21.85;;;2.80;79.40;;;;;;5098563;28;20048;-42
2021/01/03 01:26:20;;;;;;;41.97;22.65;;;2.80;79.60;;;;;;5098892;28;20024;-42
2021/01/03 01:28:47;;;;;;;46.78;25.73;;;2.80;79.80;;;;;;5098108;28;20115;-42
2021/01/03 01:31:13;;;;;;;43.28;23.92;;;2.80;79.90;;;;;;5099129;28;20027;-42
2021/01/03 01:33:38;;;;;;;48.40;28.02;;;2.80;80.00;;;;;;5098855;28;20035;-42
2021/01/03 01:36:05;;;;;;;46.83;28.02;;;2.80;80.50;;;;;;5096575;28;20035;-41
2021/01/03 01:38:31;;;;;;;49.83;28.15;;;2.90;80.80;;;;;;5098516;28;20417;-42
2021/01/03 01:40:57;;;;;;;54.67;29.95;;;2.90;81.00;;;;;;5098334;28;20384;-41
2021/01/03 01:43:23;;;;;;;50.33;28.90;;;2.90;81.20;;;;;;5097888;28;20040;-42
2021/01/03 01:45:49;;;;;;;54.85;29.55;;;2.90;81.20;;;;;;5098483;28;20031;-42
2021/01/03 01:48:33;;;;;;;53.47;31.15;;;2.90;81.20;;;;;;5098011;28;20028;-42
2021/01/03 01:51:25;;;;;;;59.05;32.10;;;2.90;81.30;;;;;;5098056;28;20074;-41
2021/01/03 01:54:30;;;;;;;58.55;32.08;;;3.00;81.40;;;;;;5095030;28;20036;-41
2021/01/03 01:57:27;;;;;;;56.47;31.38;;;3.00;81.60;;;;;;5097752;28;20035;-45
2021/01/03 02:00:17;;;;;;;60.13;31.58;;;3.00;82.10;;;;;;5094487;28;20067;-43
2021/01/03 02:03:08;;;;;;;54.92;29.25;;;3.00;82.50;;;;;;5098412;28;20024;-42
2021/01/03 02:05:55;;;;;;;48.60;27.55;;;3.10;82.90;;;;;;5097707;28;20044;-42
2021/01/03 02:08:41;;;;;;;50.45;27.42;;;3.20;83.20;;;;;;5098146;28;20082;-41
2021/01/03 02:11:13;;;;;;;47.40;25.48;;;3.20;83.40;;;;;;5097896;28;20020;-42
2021/01/03 02:13:43;;;;;;;45.22;24.73;;;3.30;83.50;;;;;;5097615;28;20122;-43
2021/01/03 02:16:20;;;;;;;42.40;24.43;;;3.30;83.50;;;;;;5098378;28;20337;-42
2021/01/03 02:18:47;;;;;;;45.45;24.60;;;3.40;83.20;;;;;;5097148;28;20461;-41
2021/01/03 02:21:32;;;;;;;60.85;25.92;;;3.40;82.80;;;;;;5097323;28;20020;-41
2021/01/03 02:24:31;;;;;;;68.72;26.95;;;3.50;82.60;;;;;;5096579;28;20035;-42
2021/01/03 02:27:07;;;;;;;77.25;25.42;;;3.40;82.10;;;;;;5095503;28;20627;-43
2021/01/03 02:29:36;;;;;;;83.15;26.58;;;3.40;81.90;;;;;;5095784;28;20031;-42
2021/01/03 02:32:04;;;;;;;70.05;24.40;;;3.30;81.80;;;;;;5096579;28;20028;-41
2021/01/03 02:34:38;;;;;;;78.75;21.70;;;3.30;81.90;;;;;;5095766;28;20032;-42
2021/01/03 02:37:14;;;;;;;78.68;21.55;;;3.20;82.00;;;;;;5090245;28;20026;-41
2021/01/03 02:39:55;;;;;;;54.90;19.60;;;3.20;82.10;;;;;;5096138;28;20172;-42
2021/01/03 02:42:28;;;;;;;;;;;3.10;82.20;;;;;;5096879;28;20154;-41
2021/01/03 02:44:55;;;;;;;77.55;21.00;;;3.10;81.90;;;;;;5096254;28;19924;-43
2021/01/03 02:47:25;;;;;;;94.95;20.65;;;3.00;82.30;;;;;;5096237;28;20023;-43
2021/01/03 02:49:51;;;;;;;66.57;21.45;;;3.00;82.40;;;;;;5095769;28;20024;-42
2021/01/03 02:52:30;;;;;;;70.63;20.20;;;2.90;82.40;;;;;;5095738;28;20422;-42
2021/01/03 02:54:56;;;;;;;58.83;19.80;;;2.90;82.60;;;;;;5094077;28;20036;-43
2021/01/03 02:57:22;;;;;;;94.40;21.02;;;2.80;82.60;;;;;;5095988;28;20047;-43
2021/01/03 02:59:48;;;;;;;74.45;19.90;;;2.80;82.80;;;;;;5094684;28;20438;-41
2021/01/03 03:02:13;;;;;;;72.05;21.63;;;2.80;82.90;;;;;;5095828;28;20306;-42
2021/01/03 03:04:39;;;;;;;69.03;20.13;;;2.70;82.90;;;;;;5095418;28;20118;-42
2021/01/03 03:07:05;;;;;;;56.22;20.90;;;2.70;83.10;;;;;;5095901;28;20062;-42
2021/01/03 03:09:31;;;;;;;74.68;20.83;;;2.70;83.30;;;;;;5096304;28;20043;-42
2021/01/03 03:11:56;;;;;;;66.72;22.45;;;2.70;83.30;;;;;;5095690;28;20028;-44
2021/01/03 03:14:22;;;;;;;57.97;20.73;;;2.70;83.40;;;;;;5094991;28;20049;-41
2021/01/03 03:16:54;;;;;;;60.28;21.65;;;2.70;83.50;;;;;;5095253;28;20505;-43
2021/01/03 03:19:19;;;;;;;54.72;19.35;;;2.70;83.50;;;;;;5091010;28;20138;-43
2021/01/03 03:21:46;;;;;;;58.50;20.02;;;2.70;83.60;;;;;;5095788;28;20047;-42
2021/01/03 03:24:12;;;;;;;56.00;18.98;;;2.70;83.70;;;;;;5095251;28;20088;-41
2021/01/03 03:26:38;;;;;;;40.65;16.98;;;2.70;83.80;;;;;;5095698;28;20043;-42
2021/01/03 03:29:04;;;;;;;38.30;18.02;;;2.70;83.70;;;;;;5093657;28;20456;-42
2021/01/03 03:31:30;;;;;;;39.90;18.20;;;2.70;83.80;;;;;;5095324;28;20028;-43
2021/01/03 03:33:56;;;;;;;37.53;16.80;;;2.70;83.80;;;;;;5095046;28;20455;-42
2021/01/03 03:36:22;;;;;;;46.92;16.90;;;2.70;83.80;;;;;;5095148;28;20383;-42
2021/01/03 03:38:47;;;;;;;45.58;15.88;;;2.70;84.00;;;;;;5095238;28;20030;-41
2021/01/03 03:41:19;;;;;;;32.85;13.68;;;2.80;83.90;;;;;;5095861;28;20076;-43
2021/01/03 03:43:44;;;;;;;32.60;15.02;;;2.70;83.60;;;;;;5094789;28;20036;-41
2021/01/03 03:46:10;;;;;;;39.00;16.58;;;2.70;83.40;;;;;;5096209;28;20077;-42
2021/01/03 03:48:36;;;;;;;37.20;17.42;;;2.70;83.40;;;;;;5096315;28;20035;-41
2021/01/03 03:51:01;;;;;;;37.35;17.35;;;2.70;83.50;;;;;;5094827;28;20023;-43
2021/01/03 03:53:27;;;;;;;47.17;15.90;;;2.70;83.50;;;;;;5094385;28;20409;-42
2021/01/03 03:55:53;;;;;;;27.73;13.82;;;2.70;83.60;;;;;;5094283;28;20024;-43
2021/01/03 03:58:19;;;;;;;38.70;15.20;;;2.70;83.50;;;;;;5094660;28;20032;-43
2021/01/03 04:00:45;;;;;;;44.25;17.58;;;2.70;83.80;;;;;;5075356;28;20052;-42
2021/01/03 04:03:11;;;;;;;42.83;17.25;;;2.80;83.80;;;;;;5093817;28;20444;-41
2021/01/03 04:05:37;;;;;;;42.17;17.15;;;2.80;83.70;;;;;;5095291;28;20106;-42
2021/01/03 04:08:03;;;;;;;51.97;17.45;;;2.80;83.50;;;;;;5096203;28;20032;-41
2021/01/03 04:10:30;;;;;;;38.15;16.45;;;2.80;83.50;;;;;;5094544;28;20039;-42
2021/01/03 04:12:56;;;;;;;50.05;16.13;;;2.80;83.50;;;;;;5095399;28;20075;-42
2021/01/03 04:15:22;;;;;;;69.80;17.13;;;2.80;83.50;;;;;;5092636;28;20353;-41
2021/01/03 04:17:48;;;;;;;40.05;14.27;;;2.90;83.60;;;;;;5095163;28;20020;-41
2021/01/03 04:20:18;;;;;;;35.08;15.73;;;2.90;83.60;;;;;;5092491;28;20425;-42
2021/01/03 04:22:45;;;;;;;40.05;15.88;;;2.90;83.70;;;;;;5094684;28;20028;-42
2021/01/03 04:25:13;;;;;;;72.72;22.23;;;2.90;83.70;;;;;;5095274;28;20097;-41
2021/01/03 04:27:39;;;;;;;63.10;22.10;;;3.00;83.80;;;;;;5094220;28;20347;-42
2021/01/03 04:30:07;;;;;;;67.40;23.10;;;3.00;83.60;;;;;;5092514;28;20035;-42
2021/01/03 04:32:33;;;;;;;109.60;25.92;;;3.00;83.60;;;;;;5096740;28;20034;-42
2021/01/03 04:34:58;;;;;;;115.32;27.08;;;3.10;83.50;;;;;;5094370;28;20036;-42
2021/01/03 04:37:24;;;;;;;113.32;31.25;;;3.10;83.40;;;;;;5096284;28;20424;-42
2021/01/03 04:39:51;;;;;;;80.80;27.20;;;3.10;83.10;;;;;;5096535;28;20070;-42
2021/01/03 04:42:21;;;;;;;90.28;29.42;;;3.10;83.10;;;;;;5098777;28;20028;-43
2021/01/03 04:44:51;;;;;;;80.53;32.27;;;3.10;83.10;;;;;;5098872;28;20336;-42
2021/01/03 04:47:29;;;;;;;98.60;32.00;;;3.20;83.20;;;;;;5100161;28;20263;-42
2021/01/03 04:50:17;;;;;;;106.22;33.17;;;3.20;83.20;;;;;;5097157;28;20032;-42
2021/01/03 04:53:00;;;;;;;81.88;31.77;;;3.20;83.10;;;;;;5099939;28;20030;-41
2021/01/03 04:55:28;;;;;;;119.60;33.50;;;3.20;83.20;;;;;;5097341;28;20028;-41
2021/01/03 04:58:12;;;;;;;98.50;33.72;;;3.30;83.20;;;;;;5097879;28;20044;-42
2021/01/03 05:00:54;;;;;;;69.25;27.85;;;3.30;83.30;;;;;;5099089;28;20031;-41
2021/01/03 05:03:28;;;;;;;97.28;32.85;;;3.30;83.30;;;;;;5098406;28;20130;-42
2021/01/03 05:05:58;;;;;;;97.88;33.92;;;3.30;83.20;;;;;;5099685;28;20039;-43
2021/01/03 05:08:44;;;;;;;75.65;28.85;;;3.40;83.10;;;;;;5097347;28;20039;-42
2021/01/03 05:11:20;;;;;;;85.22;30.42;;;3.40;83.10;;;;;;5097250;28;20122;-43
2021/01/03 05:14:10;;;;;;;75.65;27.67;;;3.40;83.10;;;;;;5096434;28;20016;-42
2021/01/03 05:16:36;;;;;;;83.63;28.47;;;3.40;83.10;;;;;;5095736;28;20314;-43
2021/01/03 05:19:02;;;;;;;76.95;28.08;;;3.50;83.20;;;;;;5097340;28;20044;-42
2021/01/03 05:21:47;;;;;;;56.38;24.23;;;3.50;83.00;;;;;;5099275;28;20024;-42
2021/01/03 05:24:14;;;;;;;73.78;26.85;;;3.50;82.90;;;;;;5098472;28;20406;-43
2021/01/03 05:26:41;;;;;;;52.58;24.40;;;3.50;83.10;;;;;;5098551;28;20023;-42
2021/01/03 05:29:11;;;;;;;69.97;29.58;;;3.50;82.60;;;;;;5098372;28;20043;-42
2021/01/03 05:31:37;;;;;;;73.45;30.15;;;3.50;82.40;;;;;;5099312;28;20031;-41
2021/01/03 05:34:09;;;;;;;85.18;29.30;;;3.50;82.60;;;;;;5098160;28;20024;-42
2021/01/03 05:36:52;;;;;;;58.25;27.65;;;3.50;82.40;;;;;;5098545;28;20038;-42
2021/01/03 05:39:18;;;;;;;58.58;25.33;;;3.50;82.20;;;;;;5097952;28;20024;-42
2021/01/03 05:41:43;;;;;;;61.80;24.70;;;3.60;82.20;;;;;;5098598;28;20453;-42
2021/01/03 05:44:20;;;;;;;79.95;24.55;;;3.50;81.80;;;;;;5097653;28;20127;-42
2021/01/03 05:46:48;;;;;;;77.47;22.05;;;3.50;81.60;;;;;;5099181;28;20380;-41
2021/01/03 05:49:26;;;;;;;78.72;26.15;;;3.50;81.70;;;;;;5097653;28;20024;-42
2021/01/03 05:52:16;;;;;;;84.80;26.50;;;3.50;81.40;;;;;;5098880;28;20104;-41
2021/01/03 05:54:42;;;;;;;73.80;25.10;;;3.50;81.40;;;;;;5097861;28;20032;-42
2021/01/03 05:57:21;;;;;;;87.68;24.25;;;3.40;81.40;;;;;;5098260;28;20438;-42
2021/01/03 05:59:47;;;;;;;74.43;24.42;;;3.40;81.30;;;;;;5097957;28;20358;-42
2021/01/03 06:02:24;;;;;;;104.80;27.85;;;3.30;81.80;;;;;;5097490;28;20020;-43
2021/01/03 06:05:12;;;;;;;111.07;35.42;;;3.30;81.00;;;;;;5096305;28;20063;-41
2021/01/03 06:07:38;;;;;;;84.10;31.90;;;3.30;80.90;;;;;;5083782;28;20028;-42
2021/01/03 06:10:29;;;;;;;85.60;25.90;;;3.30;80.90;;;;;;5075593;28;20419;-41
2021/01/03 06:12:59;;;;;;;55.65;23.35;;;3.20;81.10;;;;;;5074614;28;20070;-42
2021/01/03 06:15:27;;;;;;;66.88;26.48;;;3.20;81.40;;;;;;5075831;28;20315;-41
2021/01/03 06:17:58;;;;;;;81.97;26.98;;;3.20;81.60;;;;;;5090757;28;20028;-42
2021/01/03 06:20:27;;;;;;;;;;;3.20;81.70;;;;;;5095566;28;20067;-41
2021/01/03 06:22:55;;;;;;;77.90;26.00;;;3.20;81.60;;;;;;5096930;28;20217;-42
2021/01/03 06:25:44;;;;;;;64.35;25.17;;;3.10;81.70;;;;;;5095479;28;20036;-42
2021/01/03 06:28:22;;;;;;;69.20;23.52;;;3.20;81.80;;;;;;5096150;28;20016;-41
2021/01/03 06:31:21;;;;;;;62.05;22.65;;;3.20;81.60;;;;;;5096354;28;20059;-41
2021/01/03 06:34:15;;;;;;;63.22;25.15;;;3.10;81.50;;;;;;5063407;28;20028;-41
2021/01/03 06:36:46;;;;;;;62.22;24.15;;;3.10;81.60;;;;;;5097816;28;20404;-41
2021/01/03 06:39:22;;;;;;;57.55;26.30;;;3.10;81.60;;;;;;5097242;28;20020;-42
2021/01/03 06:41:57;;;;;;;58.38;24.98;;;3.20;81.70;;;;;;5098216;28;20028;-41
2021/01/03 06:44:25;;;;;;;53.15;25.73;;;3.10;81.80;;;;;;5096795;28;20186;-41
2021/01/03 06:47:36;;;;;;;59.33;27.75;;;3.20;81.90;;;;;;5097854;28;20052;-41
2021/01/03 06:50:29;;;;;;;59.13;27.33;;;3.20;81.60;;;;;;5097100;28;20123;-41
2021/01/03 06:53:33;;;;;;;64.25;29.90;;;3.20;81.40;;;;;;5097093;28;20032;-41
2021/01/03 06:56:04;;;;;;;56.03;27.10;;;3.20;81.40;;;;;;5097028;28;20085;-41
2021/01/03 06:58:45;;;;;;;51.80;25.58;;;3.10;81.70;;;;;;5097068;28;20028;-42
2021/01/03 07:01:35;;;;;;;61.10;29.02;;;3.20;81.80;;;;;;5097270;28;20089;-41
2021/01/03 07:04:28;;;;;;;61.23;26.97;;;3.20;82.00;;;;;;5094946;28;20032;-41
2021/01/03 07:06:57;;;;;;;68.30;24.50;;;3.20;82.00;;;;;;5086003;28;20040;-42
2021/01/03 07:09:23;;;;;;;43.03;23.00;;;3.30;82.20;;;;;;5075572;28;20032;-42
2021/01/03 07:11:57;;;;;;;51.28;24.73;;;3.30;82.40;;;;;;5077058;28;20025;-43
2021/01/03 07:14:22;;;;;;;62.88;25.95;;;3.30;82.50;;;;;;5076024;28;20067;-43
2021/01/03 07:16:54;;;;;;;49.30;23.67;;;3.40;82.80;;;;;;5076715;28;20341;-42
2021/01/03 07:19:33;;;;;;;64.55;29.45;;;3.50;82.90;;;;;;5075113;28;20537;-42
2021/01/03 07:22:14;;;;;;;76.40;29.85;;;3.50;82.60;;;;;;5076531;28;20038;-42
2021/01/03 07:24:51;;;;;;;52.08;28.17;;;3.50;82.40;;;;;;5075382;28;20043;-42
2021/01/03 07:27:37;;;;;;;56.22;24.85;;;3.60;82.40;;;;;;5076470;28;20020;-43
2021/01/03 07:30:03;;;;;;;50.45;24.88;;;3.60;82.00;;;;;;5076000;28;20060;-42
2021/01/03 07:32:37;;;;;;;63.13;28.08;;;3.60;82.00;;;;;;5076139;28;20048;-45
2021/01/03 07:35:26;;;;;;;55.80;30.08;;;3.60;82.20;;;;;;5075209;28;20107;-42
2021/01/03 07:37:52;;;;;;;57.38;27.13;;;3.70;82.20;;;;;;5069029;28;20036;-42
2021/01/03 07:40:21;;;;;;;54.20;24.77;;;3.70;82.00;;;;;;5075417;28;20039;-42
2021/01/03 07:42:46;;;;;;;56.63;27.90;;;3.70;82.00;;;;;;5075685;28;20032;-42
2021/01/03 07:45:12;;;;;;;56.45;26.38;;;3.80;82.20;;;;;;5075630;28;20040;-42
2021/01/03 07:47:42;;;;;;;57.47;24.02;;;3.80;82.00;;;;;;5075601;28;20024;-44
2021/01/03 07:50:20;;;;;;;47.72;22.42;;;3.90;81.70;;;;;;5075858;28;20029;-43
2021/01/03 07:52:49;;;;;;;48.95;22.08;;;3.90;81.40;;;;;;5076216;28;20111;-43
2021/01/03 07:55:29;;;;;;;47.42;22.77;;;3.90;81.20;;;;;;5077610;28;20128;-42
2021/01/03 07:58:10;;;;;;;52.92;25.83;;;3.90;81.00;;;;;;5084711;28;20032;-42
2021/01/03 08:00:36;;;;;;;;;;;3.90;81.00;;;;;;5076141;28;20055;-43
2021/01/03 08:03:07;;;;;;;56.67;25.60;;;3.90;81.00;;;;;;5075620;28;19912;-43
2021/01/03 08:05:34;;;;;;;66.68;28.98;;;3.90;80.90;;;;;;5075819;28;20049;-43
2021/01/03 08:08:25;;;;;;;63.83;27.95;;;3.90;80.60;;;;;;5076093;28;20020;-42
2021/01/03 08:11:11;;;;;;;73.15;30.98;;;3.90;80.60;;;;;;5075977;28;20035;-42
2021/01/03 08:13:43;;;;;;;75.05;33.17;;;3.90;80.50;;;;;;5075699;28;20128;-43
2021/01/03 08:16:09;;;;;;;68.60;29.23;;;3.90;80.50;;;;;;5075524;28;20036;-42
2021/01/03 08:18:40;;;;;;;91.25;36.03;;;3.90;80.70;;;;;;5075223;28;20391;-43
2021/01/03 08:21:20;;;;;;;106.45;39.05;;;3.90;80.60;;;;;;5076093;28;20079;-43
2021/01/03 08:23:46;;;;;;;108.63;39.92;;;4.00;80.60;;;;;;5075619;28;20565;-42
2021/01/03 08:26:15;;;;;;;97.07;36.78;;;4.00;80.20;;;;;;5075963;28;20039;-42
2021/01/03 08:28:58;;;;;;;64.32;27.90;;;4.00;80.30;;;;;;5075457;28;20042;-43
2021/01/03 08:31:27;;;;;;;55.38;25.20;;;4.00;80.30;;;;;;5075971;28;20041;-42
2021/01/03 08:33:56;;;;;;;55.42;25.45;;;4.10;80.40;;;;;;5075246;28;20339;-43
2021/01/03 08:36:29;;;;;;;76.40;31.90;;;4.10;80.40;;;;;;5075588;28;20123;-43
2021/01/03 08:39:03;;;;;;;102.15;42.30;;;4.20;80.20;;;;;;5074661;28;20078;-43
2021/01/03 08:41:32;;;;;;;71.80;33.15;;;4.30;80.20;;;;;;5076153;28;20036;-43
2021/01/03 08:43:58;;;;;;;50.33;27.63;;;4.30;80.20;;;;;;5077486;28;20033;-42
2021/01/03 08:46:30;;;;;;;70.03;37.80;;;4.40;80.30;;;;;;5082761;28;20448;-44
2021/01/03 08:49:23;;;;;;;53.53;32.10;;;4.40;80.00;;;;;;5082961;28;20343;-42
2021/01/03 08:51:48;;;;;;;68.80;39.45;;;4.50;79.90;;;;;;5072857;28;20041;-42
2021/01/03 08:54:14;;;;;;;69.72;41.35;;;4.50;79.60;;;;;;5074635;28;20021;-43
2021/01/03 08:56:49;;;;;;;44.45;24.75;;;4.60;79.10;;;;;;5084208;28;20031;-43
2021/01/03 08:59:17;;;;;;;56.10;26.33;;;4.60;78.50;;;;;;5094657;28;20159;-42
2021/01/03 09:01:43;;;;;;;43.58;23.95;;;4.50;78.10;;;;;;5095884;28;20417;-42
2021/01/03 09:04:16;;;;;;;33.53;20.83;;;4.50;78.00;;;;;;5094714;28;20043;-43
2021/01/03 09:06:42;;;;;;;38.33;22.10;;;4.50;78.10;;;;;;5095895;28;20333;-43
2021/01/03 09:09:17;;;;;;;46.63;26.25;;;4.50;78.00;;;;;;5094658;28;20036;-43
2021/01/03 09:12:03;;;;;;;35.92;22.77;;;4.50;78.30;;;;;;5094676;28;20127;-42
2021/01/03 09:14:32;;;;;;;41.30;23.00;;;4.50;78.70;;;;;;5094763;28;20487;-42
2021/01/03 09:17:07;;;;;;;42.15;22.10;;;4.60;79.00;;;;;;5095476;28;20028;-42
2021/01/03 09:19:51;;;;;;;40.38;23.80;;;4.60;79.00;;;;;;5098672;28;20109;-42
2021/01/03 09:22:44;;;;;;;61.58;36.83;;;4.70;78.90;;;;;;5099236;28;20097;-42
2021/01/03 09:25:12;;;;;;;43.67;23.10;;;4.70;78.50;;;;;;5095958;28;20109;-42
2021/01/03 09:27:40;;;;;;;48.28;28.73;;;4.70;78.20;;;;;;5099091;28;20026;-43
2021/01/03 09:30:33;;;;;;;38.00;23.55;;;4.70;77.80;;;;;;5098218;28;20028;-42
2021/01/03 09:33:19;;;;;;;33.90;20.10;;;4.70;77.30;;;;;;5098991;28;20020;-42
2021/01/03 09:36:24;;;;;;;35.97;21.30;;;4.70;77.10;;;;;;5098648;28;20413;-42
2021/01/03 09:39:01;;;;;;;43.88;26.00;;;4.70;77.20;;;;;;5097921;28;20418;-42
2021/01/03 09:41:50;;;;;;;42.35;26.02;;;4.60;77.40;;;;;;5098973;28;20337;-42
2021/01/03 09:44:18;;;;;;;40.95;24.23;;;4.60;77.60;;;;;;5098012;28;20078;-42
2021/01/03 09:47:03;;;;;;;43.25;26.35;;;4.60;77.60;;;;;;5098927;28;20123;-42
2021/01/03 09:49:44;;;;;;;42.25;25.65;;;4.60;77.50;;;;;;5091324;28;20027;-42
2021/01/03 09:52:20;;;;;;;45.40;28.83;;;4.60;77.40;;;;;;5078151;28;20032;-42
2021/01/03 09:55:07;;;;;;;46.28;28.42;;;4.60;77.30;;;;;;5076040;28;20048;-42
2021/01/03 09:57:55;;;;;;;48.95;29.67;;;4.60;77.40;;;;;;5078119;28;20105;-42
2021/01/03 10:00:39;;;;;;;52.55;29.10;;;4.60;77.90;;;;;;5077075;28;20326;-42
2021/01/03 10:03:38;;;;;;;45.10;29.05;;;4.60;78.70;;;;;;5077742;28;20049;-43
2021/01/03 10:06:15;;;;;;;56.55;34.25;;;4.70;78.40;;;;;;5078161;28;20089;-42
2021/01/03 10:08:43;;;;;;;51.40;31.05;;;4.80;78.50;;;;;;5077253;28;20062;-42
2021/01/03 10:11:10;;;;;;;49.03;31.50;;;4.80;78.50;;;;;;5088048;28;20032;-43
2021/01/03 10:13:37;;;;;;;49.88;31.45;;;4.90;78.30;;;;;;5077157;28;20020;-42
2021/01/03 10:16:33;;;;;;;53.00;32.03;;;5.00;78.10;;;;;;5077171;28;20231;-42
2021/01/03 10:18:58;;;;;;;59.88;33.00;;;5.00;77.90;;;;;;5070707;28;20067;-43
2021/01/03 10:21:36;;;;;;;58.10;32.00;;;5.10;77.30;;;;;;5086882;28;20024;-42
2021/01/03 10:24:23;;;;;;;53.95;31.35;;;5.10;77.20;;;;;;5075457;28;20421;-43
2021/01/03 10:27:13;;;;;;;44.40;29.13;;;5.10;77.10;;;;;;5078030;28;20025;-42
2021/01/03 10:29:40;;;;;;;64.97;32.42;;;5.20;77.00;;;;;;5076599;28;20095;-43
2021/01/03 10:32:06;;;;;;;60.67;33.33;;;5.20;77.10;;;;;;5076022;28;20025;-43
2021/01/03 10:34:32;;;;;;;61.80;31.90;;;5.30;77.20;;;;;;5076588;28;20646;-43
2021/01/03 10:36:59;;;;;;;62.92;34.00;;;5.30;77.00;;;;;;5076937;28;20082;-43
2021/01/03 10:39:27;;;;;;;73.05;35.58;;;5.30;76.70;;;;;;5075367;28;20466;-43
2021/01/03 10:41:53;;;;;;;59.15;32.05;;;5.30;76.50;;;;;;5077879;28;20028;-42
2021/01/03 10:44:19;;;;;;;61.70;29.77;;;5.40;76.50;;;;;;5076195;28;20032;-43
2021/01/03 10:46:49;;;;;;;65.32;32.33;;;5.40;76.90;;;;;;5077802;28;20032;-44
2021/01/03 10:49:16;;;;;;;69.95;31.10;;;5.40;76.00;;;;;;5074997;28;20081;-43
2021/01/03 10:51:44;;;;;;;62.55;30.25;;;5.40;75.90;;;;;;5077322;28;20060;-43
2021/01/03 10:54:13;;;;;;;48.80;25.83;;;5.40;76.10;;;;;;5075156;28;20338;-43
2021/01/03 10:56:40;;;;;;;53.10;28.33;;;5.40;76.40;;;;;;5077365;28;20428;-44
2021/01/03 10:59:07;;;;;;;37.40;23.42;;;5.40;76.40;;;;;;5075633;28;20029;-43
2021/01/03 11:01:38;;;;;;;39.58;22.60;;;5.50;76.50;;;;;;5077512;28;20043;-44
2021/01/03 11:04:06;;;;;;;46.10;26.75;;;5.50;76.20;;;;;;5074390;28;20032;-44
2021/01/03 11:06:39;;;;;;;49.90;29.80;;;5.50;76.00;;;;;;5087546;28;20027;-44
2021/01/03 11:09:08;;;;;;;45.55;27.60;;;5.50;75.50;;;;;;5075019;28;20060;-43
2021/01/03 11:11:34;;;;;;;35.22;22.15;;;5.50;75.20;;;;;;5076165;28;20074;-43
2021/01/03 11:14:00;;;;;;;28.45;19.00;;;5.50;75.00;;;;;;5091301;28;20480;-44
2021/01/03 11:16:36;;;;;;;33.78;20.52;;;5.40;75.00;;;;;;5076498;28;20029;-44
2021/01/03 11:19:02;;;;;;;26.48;18.02;;;5.40;75.00;;;;;;5074528;28;20040;-43
2021/01/03 11:21:29;;;;;;;27.73;16.58;;;5.30;74.90;;;;;;5075884;28;20391;-43
2021/01/03 11:23:55;;;;;;;24.88;16.45;;;5.30;75.10;;;;;;5074967;28;20229;-44
2021/01/03 11:26:27;;;;;;;24.10;16.52;;;5.30;75.20;;;;;;5076791;28;20048;-43
2021/01/03 11:28:54;;;;;;;31.58;20.95;;;5.30;75.40;;;;;;5074203;28;20075;-44
2021/01/03 11:31:21;;;;;;;27.95;18.65;;;5.30;75.50;;;;;;5075040;28;20040;-43
2021/01/03 11:33:47;;;;;;;36.65;23.70;;;5.30;75.60;;;;;;5057913;28;20058;-44
2021/01/03 11:36:17;;;;;;;39.80;24.58;;;5.40;75.80;;;;;;5075735;28;20111;-43
2021/01/03 11:38:44;;;;;;;57.05;38.17;;;5.40;75.80;;;;;;5075694;28;20056;-44
2021/01/03 11:41:13;;;;;;;39.13;25.52;;;5.40;75.70;;;;;;5074357;28;20049;-44
2021/01/03 11:43:39;;;;;;;30.58;20.90;;;5.40;75.50;;;;;;5076102;28;20067;-43
2021/01/03 11:46:05;;;;;;;30.90;19.75;;;5.50;75.30;;;;;;5076153;28;20099;-43
2021/01/03 11:48:31;;;;;;;40.22;22.00;;;5.50;74.90;;;;;;5075988;28;20145;-44
2021/01/03 11:50:57;;;;;;;37.83;22.88;;;5.40;74.80;;;;;;5091537;28;20123;-42
2021/01/03 11:53:23;;;;;;;51.00;28.95;;;5.40;74.80;;;;;;5075319;28;20438;-43
2021/01/03 11:55:49;;;;;;;29.90;18.15;;;5.40;74.60;;;;;;5075433;28;20085;-43
2021/01/03 11:58:15;;;;;;;34.33;19.08;;;5.40;74.60;;;;;;5075600;28;20329;-45
2021/01/03 12:00:41;;;;;;;33.65;18.92;;;5.40;74.50;;;;;;5074222;28;20025;-44
2021/01/03 12:03:07;;;;;;;28.08;16.80;;;5.40;74.60;;;;;;5079637;28;20053;-44
2021/01/03 12:05:34;;;;;;;26.92;16.20;;;5.40;74.60;;;;;;5074166;28;20071;-43
2021/01/03 12:08:00;;;;;;;31.33;20.08;;;5.40;74.70;;;;;;5074014;28;20042;-44
2021/01/03 12:10:26;;;;;;;33.65;19.27;;;5.40;74.80;;;;;;5073937;28;20036;-44
2021/01/03 12:12:52;;;;;;;30.08;19.20;;;5.40;74.80;;;;;;5075044;28;20035;-44
2021/01/03 12:15:19;;;;;;;36.40;22.17;;;5.40;74.80;;;;;;5073560;28;20025;-44
2021/01/03 12:17:45;;;;;;;36.70;23.73;;;5.40;75.20;;;;;;5074815;28;20028;-44
2021/01/03 12:20:13;;;;;;;40.28;23.63;;;5.40;74.20;;;;;;5072934;28;20045;-44
2021/01/03 12:22:39;;;;;;;53.88;26.70;;;5.30;74.10;;;;;;5073610;28;20068;-43
2021/01/03 12:25:08;;;;;;;36.65;21.48;;;5.30;74.10;;;;;;5073804;28;20445;-43
2021/01/03 12:27:34;;;;;;;30.52;19.73;;;5.20;74.20;;;;;;5074521;28;20028;-43
2021/01/03 12:29:59;;;;;;;32.33;21.10;;;5.20;74.30;;;;;;5074890;28;20337;-43
2021/01/03 12:32:25;;;;;;;30.38;21.08;;;5.20;74.30;;;;;;5075388;28;20029;-43
2021/01/03 12:34:51;;;;;;;31.95;20.27;;;5.10;74.40;;;;;;5073850;28;20029;-43
2021/01/03 12:37:19;;;;;;;41.10;24.77;;;5.10;74.60;;;;;;5073444;28;20037;-44
2021/01/03 12:39:46;;;;;;;39.80;24.55;;;5.10;74.60;;;;;;5073626;28;20039;-43
2021/01/03 12:42:15;;;;;;;35.08;20.88;;;5.10;74.70;;;;;;5074008;28;20024;-43
2021/01/03 12:44:40;;;;;;;41.92;25.88;;;5.10;74.70;;;;;;5073719;28;20036;-43
2021/01/03 12:47:06;;;;;;;30.33;18.25;;;5.10;74.90;;;;;;5073628;28;20028;-44
2021/01/03 12:49:33;;;;;;;33.60;18.90;;;5.10;75.00;;;;;;5082401;28;20028;-43
2021/01/03 12:51:59;;;;;;;26.73;17.55;;;5.00;75.50;;;;;;5077298;28;20442;-43
2021/01/03 12:54:25;;;;;;;24.58;15.25;;;5.10;74.90;;;;;;5078304;28;20067;-43
2021/01/03 12:56:51;;;;;;;25.15;15.88;;;5.10;74.70;;;;;;5078602;28;20040;-43
2021/01/03 12:59:18;;;;;;;23.60;15.40;;;5.10;74.80;;;;;;5078752;28;20024;-43
2021/01/03 13:01:44;;;;;;;22.98;13.65;;;5.00;74.70;;;;;;5078656;28;20035;-43